createdAt,value
2023-01-29T00:00:42.057Z,102173.84
2023-01-29T00:03:12.829Z,102182.69
2023-01-29T00:05:50.720Z,102181.00
2023-01-29T00:08:21.168Z,102177.75
2023-01-29T00:10:49.361Z,102172.41
2023-01-29T00:13:19.843Z,102172.88
2023-01-29T00:16:00.533Z,102167.38
2023-01-29T00:18:29.811Z,102176.72
2023-01-29T00:20:57.638Z,102182.59
2023-01-29T00:23:27.690Z,102184.69
2023-01-29T00:26:03.543Z,102180.66
2023-01-29T00:28:34.230Z,102173.16
2023-01-29T00:31:19.982Z,102172.44
2023-01-29T00:33:52.182Z,102173.25
2023-01-29T00:36:23.393Z,102164.25
2023-01-29T00:39:07.462Z,102164.78
2023-01-29T00:42:01.510Z,102165.53
2023-01-29T00:44:55.225Z,102164.56
2023-01-29T00:47:38.938Z,102161.72
2023-01-29T00:50:19.839Z,102159.56
2023-01-29T00:52:56.468Z,102154.44
2023-01-29T00:55:27.548Z,102153.03
2023-01-29T00:58:04.141Z,102151.03
2023-01-29T01:00:40.134Z,102162.06
2023-01-29T01:03:13.997Z,102160.06
2023-01-29T01:05:49.727Z,102159.56
2023-01-29T01:08:46.361Z,102164.75
2023-01-29T01:11:21.436Z,102165.81
2023-01-29T01:13:49.031Z,102166.44
2023-01-29T01:16:27.572Z,102165.78
2023-01-29T01:19:06.816Z,102173.47
2023-01-29T01:21:50.022Z,102174.22
2023-01-29T01:24:25.548Z,102176.72
2023-01-29T01:26:59.158Z,102179.41
2023-01-29T01:29:36.216Z,102176.50
2023-01-29T01:32:26.935Z,102179.97
2023-01-29T01:35:05.897Z,102182.47
2023-01-29T01:37:43.996Z,102189.28
2023-01-29T01:40:24.809Z,102192.91
2023-01-29T01:43:05.007Z,102190.88
2023-01-29T01:45:40.386Z,102195.34
2023-01-29T01:48:19.960Z,102190.41
2023-01-29T01:50:57.193Z,102190.72
2023-01-29T01:54:06.274Z,102194.28
2023-01-29T01:56:55.739Z,102194.03
2023-01-29T02:02:50.840Z,102192.47
2023-01-29T02:05:37.352Z,102189.16
2023-01-29T02:08:26.353Z,102187.53
2023-01-29T02:10:59.049Z,102195.13
2023-01-29T02:13:53.848Z,102195.59
2023-01-29T02:16:40.539Z,102196.91
2023-01-29T02:19:25.450Z,102190.25
2023-01-29T02:22:35.296Z,102198.63
2023-01-29T02:25:22.152Z,102193.00
2023-01-29T02:27:50.520Z,102199.78
2023-01-29T02:30:43.393Z,102197.81
2023-01-29T02:36:33.146Z,102191.56
2023-01-29T02:39:37.953Z,102198.44
2023-01-29T02:42:23.363Z,102191.75
2023-01-29T02:45:17.253Z,102187.28
2023-01-29T02:48:11.726Z,102195.06
2023-01-29T02:51:02.511Z,102188.63
2023-01-29T02:53:46.204Z,102183.81
2023-01-29T02:56:41.400Z,102182.97
2023-01-29T02:59:55.301Z,102189.59
2023-01-29T03:02:47.117Z,102186.03
2023-01-29T03:06:04.392Z,102192.03
2023-01-29T03:08:50.359Z,102193.25
2023-01-29T03:11:32.862Z,102194.78
2023-01-29T03:14:07.908Z,102191.38
2023-01-29T03:16:49.470Z,102195.88
2023-01-29T03:19:36.874Z,102205.59
2023-01-29T03:22:25.638Z,102206.22
2023-01-29T03:25:41.861Z,102201.97
2023-01-29T03:28:41.139Z,102211.06
2023-01-29T03:31:36.243Z,102201.84
2023-01-29T03:34:30.598Z,102211.22
2023-01-29T03:37:14.246Z,102214.78
2023-01-29T03:39:45.140Z,102222.91
2023-01-29T03:42:38.857Z,102214.72
2023-01-29T03:45:20.938Z,102222.03
2023-01-29T03:48:33.355Z,102221.66
2023-01-29T03:51:21.617Z,102219.78
2023-01-29T03:54:09.972Z,102214.00
2023-01-29T03:57:19.185Z,102217.75
2023-01-29T04:00:03.345Z,102212.75
2023-01-29T04:03:10.441Z,102215.34
2023-01-29T04:06:01.755Z,102219.69
2023-01-29T04:08:42.506Z,102221.91
2023-01-29T04:11:18.073Z,102223.91
2023-01-29T04:13:53.856Z,102216.91
2023-01-29T04:16:37.988Z,102221.66
2023-01-29T04:19:29.113Z,102224.97
2023-01-29T04:22:14.559Z,102236.72
2023-01-29T04:24:52.596Z,102232.72
2023-01-29T04:27:36.931Z,102241.00
2023-01-29T04:30:34.082Z,102236.72
2023-01-29T04:33:38.476Z,102233.38
2023-01-29T04:36:28.773Z,102230.81
2023-01-29T04:39:28.692Z,102232.09
2023-01-29T04:42:11.170Z,102243.75
2023-01-29T04:48:43.635Z,102236.47
2023-01-29T04:51:19.760Z,102238.94
2023-01-29T04:54:18.775Z,102239.03
2023-01-29T04:57:36.660Z,102242.78
2023-01-29T05:00:19.615Z,102253.28
2023-01-29T05:02:49.690Z,102254.34
2023-01-29T05:05:26.019Z,102256.16
2023-01-29T05:07:59.464Z,102254.59
2023-01-29T05:10:39.205Z,102258.28
2023-01-29T05:13:11.067Z,102267.50
2023-01-29T05:16:00.224Z,102269.41
2023-01-29T05:18:36.362Z,102265.94
2023-01-29T05:21:12.159Z,102265.53
2023-01-29T05:23:46.844Z,102269.69
2023-01-29T05:26:45.432Z,102268.59
2023-01-29T05:29:18.307Z,102276.88
2023-01-29T05:31:46.281Z,102272.22
2023-01-29T05:34:13.919Z,102278.16
2023-01-29T05:36:45.458Z,102293.09
2023-01-29T05:39:22.387Z,102280.81
2023-01-29T05:41:57.014Z,102282.69
2023-01-29T05:44:27.884Z,102286.47
2023-01-29T05:47:24.857Z,102303.47
2023-01-29T05:49:55.463Z,102300.22
2023-01-29T05:52:22.780Z,102304.66
2023-01-29T05:54:56.244Z,102301.91
2023-01-29T05:57:29.035Z,102310.78
2023-01-29T06:00:02.331Z,102312.16
2023-01-29T06:02:53.067Z,102318.97
2023-01-29T06:05:23.338Z,102322.41
2023-01-29T06:07:52.331Z,102326.66
2023-01-29T06:10:20.506Z,102330.03
2023-01-29T06:12:48.491Z,102333.50
2023-01-29T06:15:17.070Z,102327.53
2023-01-29T06:17:44.247Z,102334.41
2023-01-29T06:20:15.153Z,102333.88
2023-01-29T06:22:55.623Z,102336.28
2023-01-29T06:25:37.583Z,102340.75
2023-01-29T06:28:05.186Z,102350.31
2023-01-29T06:30:32.882Z,102342.06
2023-01-29T06:33:09.311Z,102343.47
2023-01-29T06:35:56.949Z,102357.38
2023-01-29T06:38:27.844Z,102354.63
2023-01-29T06:41:01.647Z,102366.47
2023-01-29T06:43:28.900Z,102362.81
2023-01-29T06:46:08.034Z,102370.28
2023-01-29T06:48:41.270Z,102361.63
2023-01-29T06:51:13.314Z,102373.41
2023-01-29T06:54:13.634Z,102372.63
2023-01-29T06:56:41.424Z,102375.81
2023-01-29T06:59:32.609Z,102380.97
2023-01-29T07:02:06.045Z,102377.22
2023-01-29T07:04:35.845Z,102376.81
2023-01-29T07:07:21.170Z,102370.97
2023-01-29T07:09:55.402Z,102383.94
2023-01-29T07:12:31.824Z,102381.25
2023-01-29T07:15:05.970Z,102395.88
2023-01-29T07:17:42.783Z,102397.34
2023-01-29T07:20:19.760Z,102405.56
2023-01-29T07:22:52.002Z,102411.53
2023-01-29T07:25:37.335Z,102414.34
2023-01-29T07:28:08.068Z,102421.47
2023-01-29T07:30:38.292Z,102428.94
2023-01-29T07:33:13.102Z,102426.91
2023-01-29T07:35:50.234Z,102431.38
2023-01-29T07:38:21.530Z,102436.78
2023-01-29T07:40:58.882Z,102446.63
2023-01-29T07:43:36.197Z,102448.13
2023-01-29T07:46:09.657Z,102448.13
2023-01-29T07:48:50.257Z,102457.56
2023-01-29T07:51:24.813Z,102460.56
2023-01-29T07:53:59.697Z,102463.72
2023-01-29T07:56:32.312Z,102469.78
2023-01-29T07:59:10.975Z,102476.34
2023-01-29T08:01:38.296Z,102479.28
2023-01-29T08:04:05.740Z,102481.50
2023-01-29T08:06:38.711Z,102478.78
2023-01-29T08:09:13.930Z,102485.94
2023-01-29T08:11:41.249Z,102491.91
2023-01-29T08:14:13.936Z,102497.41
2023-01-29T08:16:46.168Z,102497.75
2023-01-29T08:19:28.057Z,102503.38
2023-01-29T08:22:08.742Z,102508.09
2023-01-29T08:24:53.335Z,102510.03
2023-01-29T08:27:32.549Z,102509.63
2023-01-29T08:30:00.177Z,102508.00
2023-01-29T08:32:32.771Z,102527.25
2023-01-29T08:35:00.589Z,102534.94
2023-01-29T08:37:30.573Z,102536.13
2023-01-29T08:40:03.894Z,102528.97
2023-01-29T08:42:44.968Z,102531.81
2023-01-29T08:45:12.609Z,102531.09
2023-01-29T08:47:52.459Z,102527.63
2023-01-29T08:50:25.014Z,102535.50
2023-01-29T08:52:59.896Z,102535.81
2023-01-29T08:55:29.490Z,102534.59
2023-01-29T08:58:05.868Z,102546.72
2023-01-29T09:00:52.688Z,102535.09
2023-01-29T09:06:04.616Z,102541.00
2023-01-29T09:08:34.763Z,102542.59
2023-01-29T09:11:11.420Z,102549.19
2023-01-29T09:13:52.865Z,102552.44
2023-01-29T09:16:39.957Z,102554.78
2023-01-29T09:19:17.795Z,102555.28
2023-01-29T09:21:45.003Z,102559.50
2023-01-29T09:24:12.316Z,102561.16
2023-01-29T09:26:46.920Z,102569.22
2023-01-29T09:32:00.988Z,102569.56
2023-01-29T09:34:35.764Z,102569.78
2023-01-29T09:37:05.912Z,102577.13
2023-01-29T09:39:40.411Z,102570.88
2023-01-29T09:42:27.952Z,102576.84
2023-01-29T09:48:19.327Z,102579.97
2023-01-29T09:51:41.719Z,102578.03
2023-01-29T09:54:36.493Z,102581.41
2023-01-29T09:57:17.700Z,102582.75
2023-01-29T09:59:45.191Z,102585.25
2023-01-29T10:02:52.146Z,102584.97
2023-01-29T10:06:03.895Z,102592.75
2023-01-29T10:09:03.943Z,102595.53
2023-01-29T10:11:58.201Z,102592.00
2023-01-29T10:15:00.302Z,102589.75
2023-01-29T10:18:14.648Z,102590.28
2023-01-29T10:21:16.038Z,102591.81
2023-01-29T10:24:02.029Z,102594.78
2023-01-29T10:26:40.961Z,102586.31
2023-01-29T10:29:18.408Z,102578.81
2023-01-29T10:32:10.187Z,102586.28
2023-01-29T10:35:04.237Z,102582.50
2023-01-29T10:37:45.446Z,102581.63
2023-01-29T10:40:42.040Z,102580.66
2023-01-29T10:46:39.033Z,102571.00
2023-01-29T10:49:25.021Z,102567.69
2023-01-29T10:52:07.409Z,102549.53
2023-01-29T10:54:51.592Z,102556.50
2023-01-29T10:57:45.806Z,102546.00
2023-01-29T11:00:26.961Z,102539.53
2023-01-29T11:03:04.258Z,102535.66
2023-01-29T11:05:47.647Z,102532.53
2023-01-29T11:08:23.325Z,102533.28
2023-01-29T11:12:00.422Z,102530.56
2023-01-29T11:14:33.841Z,102520.78
2023-01-29T11:17:01.297Z,102517.34
2023-01-29T11:19:43.530Z,102516.22
2023-01-29T11:22:16.825Z,102506.34
2023-01-29T11:24:49.650Z,102491.41
2023-01-29T11:27:32.162Z,102498.09
2023-01-29T11:30:07.803Z,102490.28
2023-01-29T11:32:51.273Z,102490.13
2023-01-29T11:35:25.469Z,102487.56
2023-01-29T11:38:08.194Z,102478.94
2023-01-29T11:40:41.032Z,102470.59
2023-01-29T11:43:29.253Z,102463.63
2023-01-29T11:46:06.229Z,102458.13
2023-01-29T11:48:59.222Z,102461.94
2023-01-29T11:51:38.889Z,102458.75
2023-01-29T11:54:20.322Z,102448.59
2023-01-29T11:56:54.678Z,102445.53
2023-01-29T11:59:26.874Z,102441.34
2023-01-29T12:02:29.689Z,102432.66
2023-01-29T12:05:14.596Z,102433.56
2023-01-29T12:07:46.747Z,102429.16
2023-01-29T12:10:40.630Z,102425.53
2023-01-29T12:13:29.111Z,102427.28
2023-01-29T12:16:33.398Z,102433.41
2023-01-29T12:19:06.216Z,102421.72
2023-01-29T12:22:04.020Z,102423.56
2023-01-29T12:28:15.336Z,102421.72
2023-01-29T12:31:36.526Z,102412.63
2023-01-29T12:34:49.966Z,102402.66
2023-01-29T12:37:38.315Z,102401.47
2023-01-29T12:40:17.341Z,102392.31
2023-01-29T12:43:05.516Z,102384.16
2023-01-29T12:45:37.727Z,102382.31
2023-01-29T12:48:33.346Z,102382.38
2023-01-29T12:51:18.846Z,102379.09
2023-01-29T12:53:59.638Z,102377.19
2023-01-29T12:56:56.594Z,102373.88
2023-01-29T13:03:29.835Z,102385.78
2023-01-29T13:06:13.178Z,102374.31
2023-01-29T13:11:52.639Z,102374.41
2023-01-29T13:14:29.170Z,102366.38
2023-01-29T13:17:26.051Z,102372.66
2023-01-29T13:20:01.037Z,102367.31
2023-01-29T13:22:36.403Z,102370.75
2023-01-29T13:25:22.704Z,102363.81
2023-01-29T13:27:56.748Z,102347.94
2023-01-29T13:30:35.008Z,102359.97
2023-01-29T13:33:15.761Z,102353.13
2023-01-29T13:35:49.542Z,102353.19
2023-01-29T13:38:47.970Z,102344.38
2023-01-29T13:41:31.619Z,102337.34
2023-01-29T13:44:16.051Z,102340.84
2023-01-29T13:46:53.014Z,102339.06
2023-01-29T13:50:05.790Z,102339.84
2023-01-29T13:53:07.737Z,102343.31
2023-01-29T13:55:42.659Z,102333.78
2023-01-29T13:58:18.807Z,102337.25
2023-01-29T14:01:00.392Z,102330.22
2023-01-29T14:04:08.622Z,102326.69
2023-01-29T14:06:43.371Z,102326.75
2023-01-29T14:09:41.817Z,102334.63
2023-01-29T14:15:26.329Z,102327.56
2023-01-29T14:18:29.637Z,102331.06
2023-01-29T14:21:34.173Z,102329.19
2023-01-29T14:24:26.082Z,102335.25
2023-01-29T14:27:10.966Z,102330.66
2023-01-29T14:29:48.743Z,102341.06
2023-01-29T14:32:25.369Z,102333.88
2023-01-29T14:41:10.957Z,102348.66
2023-01-29T14:43:38.250Z,102356.91
2023-01-29T14:46:39.501Z,102352.72
2023-01-29T14:49:12.487Z,102363.75
2023-01-29T14:52:04.445Z,102360.94
2023-01-29T14:54:42.429Z,102361.31
2023-01-29T14:57:17.036Z,102359.84
2023-01-29T14:59:59.660Z,102365.69
2023-01-29T15:02:43.421Z,102359.72
2023-01-29T15:05:36.334Z,102360.75
2023-01-29T15:08:39.424Z,102366.41
2023-01-29T15:11:53.779Z,102368.81
2023-01-29T15:14:46.559Z,102372.13
2023-01-29T15:17:34.027Z,102379.84
2023-01-29T15:20:09.000Z,102375.59
2023-01-29T15:22:43.223Z,102387.34
2023-01-29T15:25:24.987Z,102395.44
2023-01-29T15:27:58.874Z,102393.66
2023-01-29T15:30:47.907Z,102395.38
2023-01-29T15:33:25.777Z,102401.72
2023-01-29T15:36:08.270Z,102407.13
2023-01-29T15:38:36.861Z,102414.13
2023-01-29T15:41:23.182Z,102410.81
2023-01-29T15:44:23.673Z,102424.53
2023-01-29T15:47:33.104Z,102423.56
2023-01-29T15:50:00.890Z,102426.63
2023-01-29T15:52:39.932Z,102422.06
2023-01-29T15:55:31.791Z,102425.28
2023-01-29T15:58:03.469Z,102427.44
2023-01-29T16:00:38.834Z,102426.22
2023-01-29T16:03:35.373Z,102433.47
2023-01-29T16:06:05.417Z,102425.22
2023-01-29T16:08:59.608Z,102435.38
2023-01-29T16:11:29.109Z,102425.78
2023-01-29T16:13:59.286Z,102429.66
2023-01-29T16:16:28.291Z,102425.03
2023-01-29T16:19:03.351Z,102430.09
2023-01-29T16:21:36.969Z,102430.16
2023-01-29T16:24:18.973Z,102430.53
2023-01-29T16:27:17.719Z,102427.00
2023-01-29T16:29:54.057Z,102421.28
2023-01-29T16:32:26.092Z,102430.72
2023-01-29T16:35:00.386Z,102433.81
2023-01-29T16:37:36.619Z,102435.81
2023-01-29T16:40:26.099Z,102441.16
2023-01-29T16:43:20.655Z,102431.69
2023-01-29T16:46:32.848Z,102435.28
2023-01-29T16:49:30.388Z,102439.19
2023-01-29T16:52:24.408Z,102448.72
2023-01-29T16:54:55.751Z,102447.66
2023-01-29T16:57:35.993Z,102448.13
2023-01-29T17:00:18.718Z,102451.13
2023-01-29T17:02:46.369Z,102454.06
2023-01-29T17:05:53.677Z,102457.47
2023-01-29T17:08:35.029Z,102456.09
2023-01-29T17:11:07.412Z,102466.66
2023-01-29T17:13:47.032Z,102471.59
2023-01-29T17:16:29.574Z,102476.28
2023-01-29T17:19:00.903Z,102484.09
2023-01-29T17:21:38.920Z,102471.50
2023-01-29T17:24:07.567Z,102479.41
2023-01-29T17:27:13.550Z,102485.75
2023-01-29T17:29:47.022Z,102488.50
2023-01-29T17:34:59.644Z,102489.44
2023-01-29T17:37:32.744Z,102492.06
2023-01-29T17:40:39.069Z,102507.72
2023-01-29T17:43:21.574Z,102497.41
2023-01-29T17:45:48.971Z,102509.81
2023-01-29T17:48:27.580Z,102513.22
2023-01-29T17:51:07.667Z,102521.25
2023-01-29T17:53:52.565Z,102516.47
2023-01-29T17:56:30.849Z,102526.72
2023-01-29T17:59:12.271Z,102523.03
2023-01-29T18:01:56.502Z,102526.59
2023-01-29T18:04:31.335Z,102526.19
2023-01-29T18:06:59.558Z,102541.09
2023-01-29T18:09:31.611Z,102547.81
2023-01-29T18:12:01.955Z,102550.09
2023-01-29T18:14:46.108Z,102547.97
2023-01-29T18:20:33.589Z,102566.41
2023-01-29T18:23:09.321Z,102563.25
2023-01-29T18:25:39.895Z,102558.56
2023-01-29T18:28:07.825Z,102564.22
2023-01-29T18:30:47.441Z,102571.16
2023-01-29T18:33:41.436Z,102575.78
2023-01-29T18:38:53.352Z,102572.34
2023-01-29T18:41:26.984Z,102565.59
2023-01-29T18:43:54.522Z,102575.84
2023-01-29T18:46:32.937Z,102571.06
2023-01-29T18:49:14.605Z,102577.50
2023-01-29T18:51:57.600Z,102577.16
2023-01-29T18:54:29.787Z,102576.19
2023-01-29T18:58:27.829Z,102577.97
2023-01-29T19:00:27.732Z,102583.72
2023-01-29T19:02:55.153Z,102580.31
2023-01-29T19:05:24.051Z,102582.03
2023-01-29T19:08:06.704Z,102582.84
2023-01-29T19:10:40.940Z,102588.19
2023-01-29T19:13:11.297Z,102585.94
2023-01-29T19:15:43.660Z,102586.91
2023-01-29T19:18:15.047Z,102585.94
2023-01-29T19:20:42.906Z,102591.59
2023-01-29T19:23:17.678Z,102597.22
2023-01-29T19:25:49.583Z,102597.06
2023-01-29T19:28:24.152Z,102596.66
2023-01-29T19:31:02.242Z,102603.56
2023-01-29T19:33:36.106Z,102609.06
2023-01-29T19:36:13.907Z,102605.91
2023-01-29T19:38:44.609Z,102603.03
2023-01-29T19:41:12.020Z,102613.50
2023-01-29T19:44:16.429Z,102618.25
2023-01-29T19:47:14.123Z,102618.81
2023-01-29T19:49:53.659Z,102616.22
2023-01-29T19:52:50.124Z,102619.22
2023-01-29T19:55:21.307Z,102624.09
2023-01-29T19:57:58.971Z,102625.63
2023-01-29T20:01:04.646Z,102621.50
2023-01-29T20:03:35.171Z,102628.56
2023-01-29T20:06:11.951Z,102624.09
2023-01-29T20:08:58.821Z,102619.66
2023-01-29T20:11:28.319Z,102619.72
2023-01-29T20:13:59.156Z,102629.31
2023-01-29T20:16:41.480Z,102625.63
2023-01-29T20:19:14.474Z,102624.66
2023-01-29T20:21:46.563Z,102630.97
2023-01-29T20:24:24.277Z,102623.09
2023-01-29T20:26:55.987Z,102628.28
2023-01-29T20:29:29.266Z,102624.56
2023-01-29T20:34:59.154Z,102631.28
2023-01-29T20:37:27.672Z,102631.28
2023-01-29T20:39:55.051Z,102635.50
2023-01-29T20:42:34.880Z,102641.34
2023-01-29T20:45:02.182Z,102649.97
2023-01-29T20:47:54.500Z,102660.81
2023-01-29T20:50:23.419Z,102660.44
2023-01-29T20:52:53.549Z,102663.53
2023-01-29T20:55:23.781Z,102670.94
2023-01-29T20:58:05.761Z,102664.25
2023-01-29T21:00:46.358Z,102663.81
2023-01-29T21:03:22.072Z,102659.97
2023-01-29T21:05:50.581Z,102666.94
2023-01-29T21:08:26.180Z,102665.78
2023-01-29T21:11:12.562Z,102665.53
2023-01-29T21:13:49.432Z,102666.44
2023-01-29T21:16:16.742Z,102662.09
2023-01-29T21:18:53.735Z,102666.47
2023-01-29T21:21:24.672Z,102673.19
2023-01-29T21:26:58.860Z,102671.16
2023-01-29T21:29:29.664Z,102675.59
2023-01-29T21:32:07.479Z,102671.75
2023-01-29T21:34:40.673Z,102681.31
2023-01-29T21:37:14.263Z,102679.06
2023-01-29T21:39:46.239Z,102669.94
2023-01-29T21:42:34.904Z,102678.53
2023-01-29T21:45:05.407Z,102670.75
2023-01-29T21:47:32.568Z,102666.09
2023-01-29T21:50:00.031Z,102667.63
2023-01-29T21:52:27.212Z,102667.72
2023-01-29T21:54:59.580Z,102669.41
2023-01-29T21:57:29.332Z,102665.16
2023-01-29T22:00:05.439Z,102671.44
2023-01-29T22:02:56.650Z,102668.66
2023-01-29T22:05:29.058Z,102665.94
2023-01-29T22:07:56.883Z,102671.09
2023-01-29T22:10:27.179Z,102672.56
2023-01-29T22:12:57.325Z,102677.75
2023-01-29T22:15:27.728Z,102677.44
2023-01-29T22:17:55.386Z,102674.69
2023-01-29T22:20:29.964Z,102673.97
2023-01-29T22:23:03.174Z,102676.28
2023-01-29T22:25:37.445Z,102674.25
2023-01-29T22:28:06.178Z,102669.94
2023-01-29T22:30:47.914Z,102675.44
2023-01-29T22:33:44.052Z,102673.44
2023-01-29T22:36:18.263Z,102665.34
2023-01-29T22:38:47.394Z,102667.34
2023-01-29T22:41:24.501Z,102671.53
2023-01-29T22:46:46.494Z,102672.47
2023-01-29T22:49:23.488Z,102665.81
2023-01-29T22:55:01.502Z,102668.63
2023-01-29T22:57:34.957Z,102660.31
2023-01-29T23:00:10.344Z,102662.63
2023-01-29T23:02:38.302Z,102659.22
2023-01-29T23:05:10.146Z,102668.53
2023-01-29T23:07:41.724Z,102660.31
2023-01-29T23:13:31.799Z,102666.69
2023-01-29T23:16:10.187Z,102654.38
2023-01-29T23:18:42.326Z,102666.69
2023-01-29T23:21:15.692Z,102663.63
2023-01-29T23:23:50.317Z,102664.31
2023-01-29T23:29:27.953Z,102663.03
2023-01-29T23:31:55.388Z,102664.81
2023-01-29T23:34:29.118Z,102671.69
2023-01-29T23:36:56.598Z,102662.13
2023-01-29T23:39:26.779Z,102662.22
2023-01-29T23:41:54.153Z,102666.13
2023-01-29T23:44:27.621Z,102667.81
2023-01-29T23:49:36.791Z,102669.50
2023-01-29T23:52:11.325Z,102660.53
2023-01-29T23:54:38.993Z,102664.56
2023-01-29T23:57:06.558Z,102663.25
2023-01-29T23:59:57.340Z,102661.28
